sensor_id;sensor_type;location;lat;lon;timestamp;P1;durP1;ratioP1;P2;durP2;ratioP2
74269;SDS011;62754;48.252;11.654;2022-09-01T00:01:56;25.35;;;15.80;;
74269;SDS011;62754;48.252;11.654;2022-09-01T00:04:23;19.98;;;14.65;;
74269;SDS011;62754;48.252;11.654;2022-09-01T00:06:50;23.42;;;15.30;;
74269;SDS011;62754;48.252;11.654;2022-09-01T00:09:17;21.00;;;14.63;;
74269;SDS011;62754;48.252;11.654;2022-09-01T00:11:45;22.98;;;16.67;;
74269;SDS011;62754;48.252;11.654;2022-09-01T00:14:12;27.15;;;16.42;;
74269;SDS011;62754;48.252;11.654;2022-09-01T00:16:38;22.17;;;15.63;;
74269;SDS011;62754;48.252;11.654;2022-09-01T00:19:04;23.98;;;14.32;;
74269;SDS011;62754;48.252;11.654;2022-09-01T00:21:32;25.35;;;17.35;;
74269;SDS011;62754;48.252;11.654;2022-09-01T00:24:02;22.70;;;16.65;;
74269;SDS011;62754;48.252;11.654;2022-09-01T00:26:28;23.23;;;16.65;;
74269;SDS011;62754;48.252;11.654;2022-09-01T00:28:54;22.80;;;16.35;;
74269;SDS011;62754;48.252;11.654;2022-09-01T00:31:20;23.42;;;17.90;;
74269;SDS011;62754;48.252;11.654;2022-09-01T00:33:46;22.88;;;16.38;;
74269;SDS011;62754;48.252;11.654;2022-09-01T00:36:14;23.23;;;16.35;;
74269;SDS011;62754;48.252;11.654;2022-09-01T00:38:41;25.38;;;17.92;;
74269;SDS011;62754;48.252;11.654;2022-09-01T00:41:07;29.77;;;16.73;;
74269;SDS011;62754;48.252;11.654;2022-09-01T00:43:40;23.92;;;16.88;;
74269;SDS011;62754;48.252;11.654;2022-09-01T00:46:10;26.08;;;17.20;;
74269;SDS011;62754;48.252;11.654;2022-09-01T00:48:39;28.63;;;18.63;;
74269;SDS011;62754;48.252;11.654;2022-09-01T00:51:06;27.45;;;18.38;;
74269;SDS011;62754;48.252;11.654;2022-09-01T00:53:34;23.88;;;17.63;;
74269;SDS011;62754;48.252;11.654;2022-09-01T00:56:02;24.40;;;17.50;;
74269;SDS011;62754;48.252;11.654;2022-09-01T01:00:54;26.75;;;18.73;;
74269;SDS011;62754;48.252;11.654;2022-09-01T01:03:20;29.63;;;18.38;;
74269;SDS011;62754;48.252;11.654;2022-09-01T01:05:48;29.55;;;19.48;;
74269;SDS011;62754;48.252;11.654;2022-09-01T01:08:17;27.30;;;18.98;;
74269;SDS011;62754;48.252;11.654;2022-09-01T01:10:46;31.25;;;20.77;;
74269;SDS011;62754;48.252;11.654;2022-09-01T01:13:14;28.83;;;19.65;;
74269;SDS011;62754;48.252;11.654;2022-09-01T01:15:41;25.83;;;18.95;;
74269;SDS011;62754;48.252;11.654;2022-09-01T01:18:14;31.90;;;20.25;;
74269;SDS011;62754;48.252;11.654;2022-09-01T01:20:40;28.05;;;19.90;;
74269;SDS011;62754;48.252;11.654;2022-09-01T01:26:07;30.30;;;20.35;;
74269;SDS011;62754;48.252;11.654;2022-09-01T01:28:36;30.40;;;20.27;;
74269;SDS011;62754;48.252;11.654;2022-09-01T01:31:08;30.85;;;20.55;;
74269;SDS011;62754;48.252;11.654;2022-09-01T01:33:45;29.70;;;19.20;;
74269;SDS011;62754;48.252;11.654;2022-09-01T01:36:17;28.95;;;19.80;;
74269;SDS011;62754;48.252;11.654;2022-09-01T01:38:47;33.33;;;20.88;;
74269;SDS011;62754;48.252;11.654;2022-09-01T01:41:14;28.10;;;18.52;;
74269;SDS011;62754;48.252;11.654;2022-09-01T01:43:41;26.58;;;18.67;;
74269;SDS011;62754;48.252;11.654;2022-09-01T01:46:07;28.88;;;20.05;;
74269;SDS011;62754;48.252;11.654;2022-09-01T01:48:35;27.42;;;18.10;;
74269;SDS011;62754;48.252;11.654;2022-09-01T01:51:03;26.48;;;16.52;;
74269;SDS011;62754;48.252;11.654;2022-09-01T01:53:30;25.98;;;17.73;;
74269;SDS011;62754;48.252;11.654;2022-09-01T01:55:57;28.30;;;18.58;;
74269;SDS011;62754;48.252;11.654;2022-09-01T01:58:22;28.88;;;17.27;;
74269;SDS011;62754;48.252;11.654;2022-09-01T02:00:49;31.02;;;19.40;;
74269;SDS011;62754;48.252;11.654;2022-09-01T02:03:20;29.05;;;19.70;;
74269;SDS011;62754;48.252;11.654;2022-09-01T02:05:51;29.15;;;20.02;;
74269;SDS011;62754;48.252;11.654;2022-09-01T02:08:18;32.70;;;19.63;;
74269;SDS011;62754;48.252;11.654;2022-09-01T02:10:47;29.77;;;18.40;;
74269;SDS011;62754;48.252;11.654;2022-09-01T02:13:16;30.92;;;20.15;;
74269;SDS011;62754;48.252;11.654;2022-09-01T02:15:44;30.52;;;19.17;;
74269;SDS011;62754;48.252;11.654;2022-09-01T02:18:13;32.47;;;19.33;;
74269;SDS011;62754;48.252;11.654;2022-09-01T02:20:43;27.48;;;18.08;;
74269;SDS011;62754;48.252;11.654;2022-09-01T02:23:10;26.02;;;17.73;;
74269;SDS011;62754;48.252;11.654;2022-09-01T02:25:39;26.17;;;18.08;;
74269;SDS011;62754;48.252;11.654;2022-09-01T02:28:07;27.88;;;18.50;;
74269;SDS011;62754;48.252;11.654;2022-09-01T02:30:32;26.77;;;18.30;;
74269;SDS011;62754;48.252;11.654;2022-09-01T02:32:58;26.08;;;18.52;;
74269;SDS011;62754;48.252;11.654;2022-09-01T02:35:25;27.27;;;17.75;;
74269;SDS011;62754;48.252;11.654;2022-09-01T02:37:51;29.05;;;18.85;;
74269;SDS011;62754;48.252;11.654;2022-09-01T02:40:17;29.08;;;18.67;;
74269;SDS011;62754;48.252;11.654;2022-09-01T02:42:42;30.40;;;19.20;;
74269;SDS011;62754;48.252;11.654;2022-09-01T02:45:08;29.30;;;18.75;;
74269;SDS011;62754;48.252;11.654;2022-09-01T02:47:34;29.35;;;19.90;;
74269;SDS011;62754;48.252;11.654;2022-09-01T02:50:00;27.73;;;18.08;;
74269;SDS011;62754;48.252;11.654;2022-09-01T02:52:26;30.63;;;19.08;;
74269;SDS011;62754;48.252;11.654;2022-09-01T02:54:51;29.52;;;19.85;;
74269;SDS011;62754;48.252;11.654;2022-09-01T02:57:17;27.13;;;17.58;;
74269;SDS011;62754;48.252;11.654;2022-09-01T02:59:43;30.83;;;20.05;;
74269;SDS011;62754;48.252;11.654;2022-09-01T03:02:09;31.27;;;20.17;;
74269;SDS011;62754;48.252;11.654;2022-09-01T03:04:34;24.27;;;16.70;;
74269;SDS011;62754;48.252;11.654;2022-09-01T03:07:02;25.80;;;17.05;;
74269;SDS011;62754;48.252;11.654;2022-09-01T03:09:28;28.48;;;18.88;;
74269;SDS011;62754;48.252;11.654;2022-09-01T03:11:54;26.33;;;17.10;;
74269;SDS011;62754;48.252;11.654;2022-09-01T03:14:21;31.38;;;19.45;;
74269;SDS011;62754;48.252;11.654;2022-09-01T03:16:47;28.85;;;19.52;;
74269;SDS011;62754;48.252;11.654;2022-09-01T03:19:13;27.52;;;18.15;;
74269;SDS011;62754;48.252;11.654;2022-09-01T03:21:40;26.05;;;17.15;;
74269;SDS011;62754;48.252;11.654;2022-09-01T03:24:08;25.23;;;17.92;;
74269;SDS011;62754;48.252;11.654;2022-09-01T03:26:34;27.67;;;17.42;;
74269;SDS011;62754;48.252;11.654;2022-09-01T03:29:01;30.88;;;19.63;;
74269;SDS011;62754;48.252;11.654;2022-09-01T03:31:28;30.48;;;19.17;;
74269;SDS011;62754;48.252;11.654;2022-09-01T03:33:54;26.58;;;18.23;;
74269;SDS011;62754;48.252;11.654;2022-09-01T03:36:21;28.48;;;18.55;;
74269;SDS011;62754;48.252;11.654;2022-09-01T03:38:49;26.92;;;18.20;;
74269;SDS011;62754;48.252;11.654;2022-09-01T03:41:17;29.33;;;19.63;;
74269;SDS011;62754;48.252;11.654;2022-09-01T03:43:45;27.25;;;18.23;;
74269;SDS011;62754;48.252;11.654;2022-09-01T03:46:11;27.48;;;18.73;;
74269;SDS011;62754;48.252;11.654;2022-09-01T03:48:37;26.65;;;18.20;;
74269;SDS011;62754;48.252;11.654;2022-09-01T03:51:03;27.88;;;19.98;;
74269;SDS011;62754;48.252;11.654;2022-09-01T03:53:33;28.23;;;18.42;;
74269;SDS011;62754;48.252;11.654;2022-09-01T03:56:02;25.98;;;17.52;;
74269;SDS011;62754;48.252;11.654;2022-09-01T03:58:28;26.85;;;17.95;;
74269;SDS011;62754;48.252;11.654;2022-09-01T04:00:55;24.15;;;17.00;;
74269;SDS011;62754;48.252;11.654;2022-09-01T04:03:24;26.05;;;17.30;;
74269;SDS011;62754;48.252;11.654;2022-09-01T04:05:52;28.50;;;19.00;;
74269;SDS011;62754;48.252;11.654;2022-09-01T04:08:19;29.85;;;18.23;;
74269;SDS011;62754;48.252;11.654;2022-09-01T04:10:47;29.63;;;19.30;;
74269;SDS011;62754;48.252;11.654;2022-09-01T04:13:19;26.92;;;18.67;;
74269;SDS011;62754;48.252;11.654;2022-09-01T04:15:56;31.02;;;18.08;;
74269;SDS011;62754;48.252;11.654;2022-09-01T04:18:22;28.83;;;18.70;;
74269;SDS011;62754;48.252;11.654;2022-09-01T04:20:50;25.50;;;17.50;;
74269;SDS011;62754;48.252;11.654;2022-09-01T04:23:25;25.63;;;17.63;;
74269;SDS011;62754;48.252;11.654;2022-09-01T04:25:54;26.98;;;17.40;;
74269;SDS011;62754;48.252;11.654;2022-09-01T04:28:41;29.60;;;17.38;;
74269;SDS011;62754;48.252;11.654;2022-09-01T04:31:10;32.00;;;20.40;;
74269;SDS011;62754;48.252;11.654;2022-09-01T04:33:37;31.80;;;20.05;;
74269;SDS011;62754;48.252;11.654;2022-09-01T04:36:04;29.80;;;19.33;;
74269;SDS011;62754;48.252;11.654;2022-09-01T04:38:33;29.55;;;18.08;;
74269;SDS011;62754;48.252;11.654;2022-09-01T04:41:02;29.58;;;19.33;;
74269;SDS011;62754;48.252;11.654;2022-09-01T04:43:29;30.58;;;20.02;;
74269;SDS011;62754;48.252;11.654;2022-09-01T04:45:54;28.73;;;18.92;;
74269;SDS011;62754;48.252;11.654;2022-09-01T04:48:20;29.23;;;18.63;;
74269;SDS011;62754;48.252;11.654;2022-09-01T04:50:46;28.30;;;19.10;;
74269;SDS011;62754;48.252;11.654;2022-09-01T04:53:13;29.25;;;19.58;;
74269;SDS011;62754;48.252;11.654;2022-09-01T04:55:39;28.90;;;19.20;;
74269;SDS011;62754;48.252;11.654;2022-09-01T04:58:05;26.77;;;17.67;;
74269;SDS011;62754;48.252;11.654;2022-09-01T05:00:31;28.38;;;17.90;;
74269;SDS011;62754;48.252;11.654;2022-09-01T05:02:58;28.73;;;18.20;;
74269;SDS011;62754;48.252;11.654;2022-09-01T05:05:25;28.15;;;18.50;;
74269;SDS011;62754;48.252;11.654;2022-09-01T05:07:51;27.80;;;18.63;;
74269;SDS011;62754;48.252;11.654;2022-09-01T05:10:18;29.52;;;18.20;;
74269;SDS011;62754;48.252;11.654;2022-09-01T05:12:44;29.08;;;17.75;;
74269;SDS011;62754;48.252;11.654;2022-09-01T05:15:13;28.80;;;18.40;;
74269;SDS011;62754;48.252;11.654;2022-09-01T05:17:40;30.92;;;20.23;;
74269;SDS011;62754;48.252;11.654;2022-09-01T05:20:06;25.08;;;17.52;;
74269;SDS011;62754;48.252;11.654;2022-09-01T05:22:32;27.30;;;17.95;;
74269;SDS011;62754;48.252;11.654;2022-09-01T05:24:59;26.80;;;17.60;;
74269;SDS011;62754;48.252;11.654;2022-09-01T05:27:24;26.75;;;16.80;;
74269;SDS011;62754;48.252;11.654;2022-09-01T05:29:50;25.48;;;17.48;;
74269;SDS011;62754;48.252;11.654;2022-09-01T05:32:16;24.23;;;16.25;;
74269;SDS011;62754;48.252;11.654;2022-09-01T05:34:42;23.33;;;15.93;;
74269;SDS011;62754;48.252;11.654;2022-09-01T05:37:08;27.55;;;18.02;;
74269;SDS011;62754;48.252;11.654;2022-09-01T05:39:35;25.10;;;17.02;;
74269;SDS011;62754;48.252;11.654;2022-09-01T05:42:01;25.85;;;17.05;;
74269;SDS011;62754;48.252;11.654;2022-09-01T05:44:27;25.75;;;17.15;;
74269;SDS011;62754;48.252;11.654;2022-09-01T05:46:52;27.63;;;18.50;;
74269;SDS011;62754;48.252;11.654;2022-09-01T05:49:18;24.88;;;16.25;;
74269;SDS011;62754;48.252;11.654;2022-09-01T05:51:47;25.25;;;17.02;;
74269;SDS011;62754;48.252;11.654;2022-09-01T05:54:15;25.17;;;15.70;;
74269;SDS011;62754;48.252;11.654;2022-09-01T05:56:45;24.63;;;16.35;;
74269;SDS011;62754;48.252;11.654;2022-09-01T05:59:12;23.67;;;16.30;;
74269;SDS011;62754;48.252;11.654;2022-09-01T06:01:38;23.67;;;16.67;;
74269;SDS011;62754;48.252;11.654;2022-09-01T06:04:04;22.45;;;15.20;;
74269;SDS011;62754;48.252;11.654;2022-09-01T06:06:40;22.90;;;15.50;;
74269;SDS011;62754;48.252;11.654;2022-09-01T06:09:13;21.90;;;16.02;;
74269;SDS011;62754;48.252;11.654;2022-09-01T06:11:40;21.08;;;15.75;;
74269;SDS011;62754;48.252;11.654;2022-09-01T06:14:06;22.38;;;15.95;;
74269;SDS011;62754;48.252;11.654;2022-09-01T06:16:32;24.08;;;16.70;;
74269;SDS011;62754;48.252;11.654;2022-09-01T06:18:58;21.27;;;14.18;;
74269;SDS011;62754;48.252;11.654;2022-09-01T06:21:24;21.65;;;14.50;;
74269;SDS011;62754;48.252;11.654;2022-09-01T06:23:50;20.58;;;14.38;;
74269;SDS011;62754;48.252;11.654;2022-09-01T06:26:17;20.55;;;14.73;;
74269;SDS011;62754;48.252;11.654;2022-09-01T06:28:44;21.20;;;14.63;;
74269;SDS011;62754;48.252;11.654;2022-09-01T06:31:10;20.02;;;13.18;;
74269;SDS011;62754;48.252;11.654;2022-09-01T06:33:36;20.98;;;14.60;;
74269;SDS011;62754;48.252;11.654;2022-09-01T06:38:28;19.45;;;14.05;;
74269;SDS011;62754;48.252;11.654;2022-09-01T06:41:00;16.85;;;11.98;;
74269;SDS011;62754;48.252;11.654;2022-09-01T06:43:27;20.65;;;14.20;;
74269;SDS011;62754;48.252;11.654;2022-09-01T06:45:53;20.10;;;13.88;;
74269;SDS011;62754;48.252;11.654;2022-09-01T06:48:19;18.42;;;14.18;;
74269;SDS011;62754;48.252;11.654;2022-09-01T06:50:46;17.73;;;13.60;;
74269;SDS011;62754;48.252;11.654;2022-09-01T06:53:11;17.02;;;12.77;;
74269;SDS011;62754;48.252;11.654;2022-09-01T06:55:37;16.33;;;11.85;;
74269;SDS011;62754;48.252;11.654;2022-09-01T06:58:07;16.77;;;12.23;;
74269;SDS011;62754;48.252;11.654;2022-09-01T07:00:37;15.70;;;12.45;;
74269;SDS011;62754;48.252;11.654;2022-09-01T07:03:04;16.85;;;12.70;;
74269;SDS011;62754;48.252;11.654;2022-09-01T07:05:29;16.33;;;12.63;;
74269;SDS011;62754;48.252;11.654;2022-09-01T07:07:55;15.88;;;11.75;;
74269;SDS011;62754;48.252;11.654;2022-09-01T07:10:21;15.45;;;11.90;;
74269;SDS011;62754;48.252;11.654;2022-09-01T07:12:53;16.27;;;12.07;;
74269;SDS011;62754;48.252;11.654;2022-09-01T07:15:21;15.13;;;10.88;;
74269;SDS011;62754;48.252;11.654;2022-09-01T07:17:48;15.07;;;11.75;;
74269;SDS011;62754;48.252;11.654;2022-09-01T07:20:15;16.80;;;12.43;;
74269;SDS011;62754;48.252;11.654;2022-09-01T07:22:46;19.60;;;12.60;;
74269;SDS011;62754;48.252;11.654;2022-09-01T07:25:12;13.20;;;10.82;;
74269;SDS011;62754;48.252;11.654;2022-09-01T07:27:39;15.80;;;12.38;;
74269;SDS011;62754;48.252;11.654;2022-09-01T07:30:06;13.88;;;11.05;;
74269;SDS011;62754;48.252;11.654;2022-09-01T07:32:32;16.05;;;12.15;;
74269;SDS011;62754;48.252;11.654;2022-09-01T07:34:57;15.50;;;11.70;;
74269;SDS011;62754;48.252;11.654;2022-09-01T07:37:24;15.25;;;12.23;;
74269;SDS011;62754;48.252;11.654;2022-09-01T07:39:50;15.55;;;12.93;;
74269;SDS011;62754;48.252;11.654;2022-09-01T07:42:17;16.05;;;12.38;;
74269;SDS011;62754;48.252;11.654;2022-09-01T07:44:43;14.52;;;11.98;;
74269;SDS011;62754;48.252;11.654;2022-09-01T07:47:09;13.10;;;11.20;;
74269;SDS011;62754;48.252;11.654;2022-09-01T07:49:35;15.57;;;11.02;;
74269;SDS011;62754;48.252;11.654;2022-09-01T07:52:01;13.45;;;10.82;;
74269;SDS011;62754;48.252;11.654;2022-09-01T07:54:28;13.57;;;11.85;;
74269;SDS011;62754;48.252;11.654;2022-09-01T07:56:54;15.60;;;11.32;;
74269;SDS011;62754;48.252;11.654;2022-09-01T07:59:19;12.75;;;10.57;;
74269;SDS011;62754;48.252;11.654;2022-09-01T08:01:45;15.13;;;11.25;;
74269;SDS011;62754;48.252;11.654;2022-09-01T08:04:11;14.10;;;11.07;;
74269;SDS011;62754;48.252;11.654;2022-09-01T08:06:38;13.05;;;10.63;;
74269;SDS011;62754;48.252;11.654;2022-09-01T08:09:04;11.48;;;9.93;;
74269;SDS011;62754;48.252;11.654;2022-09-01T08:11:30;11.75;;;9.70;;
74269;SDS011;62754;48.252;11.654;2022-09-01T08:13:56;11.48;;;9.68;;
74269;SDS011;62754;48.252;11.654;2022-09-01T08:16:22;13.57;;;10.48;;
74269;SDS011;62754;48.252;11.654;2022-09-01T08:18:48;13.30;;;9.02;;
74269;SDS011;62754;48.252;11.654;2022-09-01T08:21:14;10.77;;;9.13;;
74269;SDS011;62754;48.252;11.654;2022-09-01T08:23:41;10.63;;;8.60;;
74269;SDS011;62754;48.252;11.654;2022-09-01T08:26:09;11.93;;;8.77;;
74269;SDS011;62754;48.252;11.654;2022-09-01T08:28:37;9.25;;;7.75;;
74269;SDS011;62754;48.252;11.654;2022-09-01T08:31:09;10.18;;;8.38;;
74269;SDS011;62754;48.252;11.654;2022-09-01T08:33:39;8.45;;;7.22;;
74269;SDS011;62754;48.252;11.654;2022-09-01T08:36:09;10.10;;;8.07;;
74269;SDS011;62754;48.252;11.654;2022-09-01T08:38:37;10.82;;;7.03;;
74269;SDS011;62754;48.252;11.654;2022-09-01T08:41:04;10.02;;;7.95;;
74269;SDS011;62754;48.252;11.654;2022-09-01T08:46:36;10.00;;;7.85;;
74269;SDS011;62754;48.252;11.654;2022-09-01T08:49:37;8.52;;;7.45;;
74269;SDS011;62754;48.252;11.654;2022-09-01T08:54:54;9.35;;;7.63;;
74269;SDS011;62754;48.252;11.654;2022-09-01T08:57:31;9.52;;;7.78;;
74269;SDS011;62754;48.252;11.654;2022-09-01T09:00:00;11.10;;;7.50;;
74269;SDS011;62754;48.252;11.654;2022-09-01T09:11:04;11.77;;;7.65;;
74269;SDS011;62754;48.252;11.654;2022-09-01T09:16:11;9.63;;;8.18;;
74269;SDS011;62754;48.252;11.654;2022-09-01T09:18:49;9.43;;;6.32;;
74269;SDS011;62754;48.252;11.654;2022-09-01T09:21:21;7.07;;;6.22;;
74269;SDS011;62754;48.252;11.654;2022-09-01T09:23:57;8.57;;;6.57;;
74269;SDS011;62754;48.252;11.654;2022-09-01T09:26:31;7.47;;;6.68;;
74269;SDS011;62754;48.252;11.654;2022-09-01T09:28:57;7.40;;;5.72;;
74269;SDS011;62754;48.252;11.654;2022-09-01T09:31:24;6.38;;;4.68;;
74269;SDS011;62754;48.252;11.654;2022-09-01T09:33:52;4.90;;;3.75;;
74269;SDS011;62754;48.252;11.654;2022-09-01T09:36:20;5.10;;;3.95;;
74269;SDS011;62754;48.252;11.654;2022-09-01T09:38:59;5.00;;;3.10;;
74269;SDS011;62754;48.252;11.654;2022-09-01T09:41:28;5.07;;;3.75;;
74269;SDS011;62754;48.252;11.654;2022-09-01T09:44:03;4.82;;;3.35;;
74269;SDS011;62754;48.252;11.654;2022-09-01T09:46:36;3.97;;;2.72;;
74269;SDS011;62754;48.252;11.654;2022-09-01T09:49:08;5.82;;;3.33;;
74269;SDS011;62754;48.252;11.654;2022-09-01T09:51:48;5.47;;;3.30;;
74269;SDS011;62754;48.252;11.654;2022-09-01T09:54:26;4.45;;;2.88;;
74269;SDS011;62754;48.252;11.654;2022-09-01T09:59:41;3.53;;;2.80;;
74269;SDS011;62754;48.252;11.654;2022-09-01T10:02:24;4.72;;;2.70;;
74269;SDS011;62754;48.252;11.654;2022-09-01T10:05:00;5.65;;;2.70;;
74269;SDS011;62754;48.252;11.654;2022-09-01T10:07:45;4.50;;;3.22;;
74269;SDS011;62754;48.252;11.654;2022-09-01T10:12:55;4.57;;;2.97;;
74269;SDS011;62754;48.252;11.654;2022-09-01T10:15:27;3.50;;;2.55;;
74269;SDS011;62754;48.252;11.654;2022-09-01T10:18:08;3.60;;;2.78;;
74269;SDS011;62754;48.252;11.654;2022-09-01T10:20:37;5.80;;;3.13;;
74269;SDS011;62754;48.252;11.654;2022-09-01T10:23:03;4.60;;;3.22;;
74269;SDS011;62754;48.252;11.654;2022-09-01T10:25:30;4.63;;;3.22;;
74269;SDS011;62754;48.252;11.654;2022-09-01T10:30:41;4.25;;;2.53;;
74269;SDS011;62754;48.252;11.654;2022-09-01T10:33:10;3.13;;;2.25;;
74269;SDS011;62754;48.252;11.654;2022-09-01T10:35:40;4.80;;;2.42;;
74269;SDS011;62754;48.252;11.654;2022-09-01T10:38:10;3.65;;;2.58;;
74269;SDS011;62754;48.252;11.654;2022-09-01T10:40:42;3.67;;;2.72;;
74269;SDS011;62754;48.252;11.654;2022-09-01T10:53:41;3.80;;;2.85;;
74269;SDS011;62754;48.252;11.654;2022-09-01T11:04:06;2.90;;;2.10;;
74269;SDS011;62754;48.252;11.654;2022-09-01T11:09:25;2.38;;;1.80;;
74269;SDS011;62754;48.252;11.654;2022-09-01T11:15:02;3.05;;;1.88;;
74269;SDS011;62754;48.252;11.654;2022-09-01T11:17:35;3.28;;;2.30;;
74269;SDS011;62754;48.252;11.654;2022-09-01T11:23:01;3.55;;;2.20;;
74269;SDS011;62754;48.252;11.654;2022-09-01T11:25:32;3.83;;;2.22;;
74269;SDS011;62754;48.252;11.654;2022-09-01T11:27:59;3.65;;;2.40;;
74269;SDS011;62754;48.252;11.654;2022-09-01T11:33:00;3.65;;;2.72;;
74269;SDS011;62754;48.252;11.654;2022-09-01T11:35:37;4.90;;;2.58;;
74269;SDS011;62754;48.252;11.654;2022-09-01T11:38:04;6.32;;;2.72;;
74269;SDS011;62754;48.252;11.654;2022-09-01T11:40:32;3.67;;;2.65;;
74269;SDS011;62754;48.252;11.654;2022-09-01T11:43:03;3.00;;;2.38;;
74269;SDS011;62754;48.252;11.654;2022-09-01T11:45:36;3.67;;;2.88;;
74269;SDS011;62754;48.252;11.654;2022-09-01T11:48:13;3.70;;;3.05;;
74269;SDS011;62754;48.252;11.654;2022-09-01T11:53:19;3.53;;;2.88;;
74269;SDS011;62754;48.252;11.654;2022-09-01T11:55:48;5.50;;;2.65;;
74269;SDS011;62754;48.252;11.654;2022-09-01T12:00:50;3.83;;;2.90;;
74269;SDS011;62754;48.252;11.654;2022-09-01T12:03:21;5.05;;;2.83;;
74269;SDS011;62754;48.252;11.654;2022-09-01T12:05:56;4.18;;;2.60;;
74269;SDS011;62754;48.252;11.654;2022-09-01T12:08:25;3.97;;;2.28;;
74269;SDS011;62754;48.252;11.654;2022-09-01T12:11:03;4.10;;;2.83;;
74269;SDS011;62754;48.252;11.654;2022-09-01T12:16:26;4.60;;;2.50;;
74269;SDS011;62754;48.252;11.654;2022-09-01T12:18:54;6.35;;;2.70;;
74269;SDS011;62754;48.252;11.654;2022-09-01T12:21:30;5.28;;;2.22;;
74269;SDS011;62754;48.252;11.654;2022-09-01T12:26:47;3.22;;;1.85;;
74269;SDS011;62754;48.252;11.654;2022-09-01T12:29:15;4.07;;;2.50;;
74269;SDS011;62754;48.252;11.654;2022-09-01T12:31:43;4.07;;;2.42;;
74269;SDS011;62754;48.252;11.654;2022-09-01T12:39:40;3.70;;;2.40;;
74269;SDS011;62754;48.252;11.654;2022-09-01T12:47:05;4.63;;;2.10;;
74269;SDS011;62754;48.252;11.654;2022-09-01T12:52:32;3.97;;;2.42;;
74269;SDS011;62754;48.252;11.654;2022-09-01T12:57:33;2.47;;;1.70;;
74269;SDS011;62754;48.252;11.654;2022-09-01T13:02:38;4.03;;;2.25;;
74269;SDS011;62754;48.252;11.654;2022-09-01T13:08:00;3.85;;;2.05;;
74269;SDS011;62754;48.252;11.654;2022-09-01T13:10:30;3.88;;;1.90;;
74269;SDS011;62754;48.252;11.654;2022-09-01T13:12:58;4.53;;;2.63;;
74269;SDS011;62754;48.252;11.654;2022-09-01T13:17:50;3.42;;;1.85;;
74269;SDS011;62754;48.252;11.654;2022-09-01T13:20:17;3.45;;;1.95;;
74269;SDS011;62754;48.252;11.654;2022-09-01T13:22:43;2.75;;;1.98;;
74269;SDS011;62754;48.252;11.654;2022-09-01T13:25:10;2.83;;;1.90;;
74269;SDS011;62754;48.252;11.654;2022-09-01T13:27:36;3.00;;;1.67;;
74269;SDS011;62754;48.252;11.654;2022-09-01T13:30:03;2.42;;;1.60;;
74269;SDS011;62754;48.252;11.654;2022-09-01T13:32:30;2.70;;;1.58;;
74269;SDS011;62754;48.252;11.654;2022-09-01T13:34:55;3.47;;;1.67;;
74269;SDS011;62754;48.252;11.654;2022-09-01T13:37:21;2.72;;;1.30;;
74269;SDS011;62754;48.252;11.654;2022-09-01T13:39:48;2.60;;;1.30;;
74269;SDS011;62754;48.252;11.654;2022-09-01T13:42:14;2.72;;;1.73;;
74269;SDS011;62754;48.252;11.654;2022-09-01T13:44:41;2.72;;;1.50;;
74269;SDS011;62754;48.252;11.654;2022-09-01T13:47:07;2.58;;;1.10;;
74269;SDS011;62754;48.252;11.654;2022-09-01T13:49:33;3.22;;;1.80;;
74269;SDS011;62754;48.252;11.654;2022-09-01T13:51:59;4.15;;;1.63;;
74269;SDS011;62754;48.252;11.654;2022-09-01T13:54:24;3.28;;;1.70;;
74269;SDS011;62754;48.252;11.654;2022-09-01T13:56:50;3.17;;;1.55;;
74269;SDS011;62754;48.252;11.654;2022-09-01T13:59:16;3.80;;;1.58;;
74269;SDS011;62754;48.252;11.654;2022-09-01T14:01:41;2.50;;;1.42;;
74269;SDS011;62754;48.252;11.654;2022-09-01T14:04:08;4.30;;;1.30;;
74269;SDS011;62754;48.252;11.654;2022-09-01T14:06:38;2.03;;;1.20;;
74269;SDS011;62754;48.252;11.654;2022-09-01T14:09:07;4.28;;;1.42;;
74269;SDS011;62754;48.252;11.654;2022-09-01T14:11:33;2.15;;;1.40;;
74269;SDS011;62754;48.252;11.654;2022-09-01T14:13:59;3.25;;;1.40;;
74269;SDS011;62754;48.252;11.654;2022-09-01T14:16:25;2.85;;;1.38;;
74269;SDS011;62754;48.252;11.654;2022-09-01T14:18:51;2.63;;;1.40;;
74269;SDS011;62754;48.252;11.654;2022-09-01T14:21:16;2.10;;;1.25;;
74269;SDS011;62754;48.252;11.654;2022-09-01T14:23:42;2.45;;;1.20;;
74269;SDS011;62754;48.252;11.654;2022-09-01T14:26:09;3.33;;;1.48;;
74269;SDS011;62754;48.252;11.654;2022-09-01T14:28:36;2.67;;;1.20;;
74269;SDS011;62754;48.252;11.654;2022-09-01T14:31:06;2.58;;;1.23;;
74269;SDS011;62754;48.252;11.654;2022-09-01T14:33:34;2.80;;;1.30;;
74269;SDS011;62754;48.252;11.654;2022-09-01T14:36:00;2.65;;;1.33;;
74269;SDS011;62754;48.252;11.654;2022-09-01T14:38:26;1.92;;;1.20;;
74269;SDS011;62754;48.252;11.654;2022-09-01T14:40:52;2.83;;;1.40;;
74269;SDS011;62754;48.252;11.654;2022-09-01T14:43:18;2.63;;;1.15;;
74269;SDS011;62754;48.252;11.654;2022-09-01T14:45:44;2.33;;;1.10;;
74269;SDS011;62754;48.252;11.654;2022-09-01T14:48:10;2.75;;;1.00;;
74269;SDS011;62754;48.252;11.654;2022-09-01T14:50:38;2.40;;;1.20;;
74269;SDS011;62754;48.252;11.654;2022-09-01T14:53:05;2.08;;;1.05;;
74269;SDS011;62754;48.252;11.654;2022-09-01T14:55:31;2.15;;;1.02;;
74269;SDS011;62754;48.252;11.654;2022-09-01T14:57:57;2.47;;;1.10;;
74269;SDS011;62754;48.252;11.654;2022-09-01T15:00:23;2.45;;;1.00;;
74269;SDS011;62754;48.252;11.654;2022-09-01T15:02:49;1.98;;;0.95;;
74269;SDS011;62754;48.252;11.654;2022-09-01T15:05:15;2.00;;;0.95;;
74269;SDS011;62754;48.252;11.654;2022-09-01T15:07:41;2.38;;;1.00;;
74269;SDS011;62754;48.252;11.654;2022-09-01T15:10:08;3.10;;;1.10;;
74269;SDS011;62754;48.252;11.654;2022-09-01T15:12:35;2.33;;;0.88;;
74269;SDS011;62754;48.252;11.654;2022-09-01T15:15:01;3.25;;;0.90;;
74269;SDS011;62754;48.252;11.654;2022-09-01T15:17:27;2.47;;;0.90;;
74269;SDS011;62754;48.252;11.654;2022-09-01T15:19:53;1.60;;;1.00;;
74269;SDS011;62754;48.252;11.654;2022-09-01T15:22:20;2.00;;;1.10;;
74269;SDS011;62754;48.252;11.654;2022-09-01T15:24:45;1.75;;;1.15;;
74269;SDS011;62754;48.252;11.654;2022-09-01T15:27:11;2.95;;;1.15;;
74269;SDS011;62754;48.252;11.654;2022-09-01T15:29:37;2.90;;;1.40;;
74269;SDS011;62754;48.252;11.654;2022-09-01T15:32:03;2.90;;;1.60;;
74269;SDS011;62754;48.252;11.654;2022-09-01T15:34:29;2.70;;;1.10;;
74269;SDS011;62754;48.252;11.654;2022-09-01T15:39:20;2.63;;;1.20;;
74269;SDS011;62754;48.252;11.654;2022-09-01T15:41:46;1.95;;;1.00;;
74269;SDS011;62754;48.252;11.654;2022-09-01T15:44:12;2.85;;;1.23;;
74269;SDS011;62754;48.252;11.654;2022-09-01T15:46:38;2.13;;;1.10;;
74269;SDS011;62754;48.252;11.654;2022-09-01T15:49:04;2.45;;;1.20;;
74269;SDS011;62754;48.252;11.654;2022-09-01T15:51:34;2.20;;;1.00;;
74269;SDS011;62754;48.252;11.654;2022-09-01T15:54:05;2.45;;;1.10;;
74269;SDS011;62754;48.252;11.654;2022-09-01T15:56:33;2.35;;;1.23;;
74269;SDS011;62754;48.252;11.654;2022-09-01T15:58:59;4.07;;;1.20;;
74269;SDS011;62754;48.252;11.654;2022-09-01T16:01:26;2.58;;;1.02;;
74269;SDS011;62754;48.252;11.654;2022-09-01T16:03:54;4.72;;;1.30;;